sensor_id;sensor_type;location;lat;lon;timestamp;P1;durP1;ratioP1;P2;durP2;ratioP2
17510;SDS011;8873;48.818;9.422;2023-09-18T00:01:52;4.65;;;4.22;;
17510;SDS011;8873;48.818;9.422;2023-09-18T00:04:20;4.60;;;4.18;;
17510;SDS011;8873;48.818;9.422;2023-09-18T00:06:48;4.47;;;4.05;;
17510;SDS011;8873;48.818;9.422;2023-09-18T00:09:16;6.72;;;4.32;;
17510;SDS011;8873;48.818;9.422;2023-09-18T00:11:44;4.63;;;4.22;;
17510;SDS011;8873;48.818;9.422;2023-09-18T00:14:12;5.78;;;4.43;;
17510;SDS011;8873;48.818;9.422;2023-09-18T00:16:40;8.05;;;4.40;;
17510;SDS011;8873;48.818;9.422;2023-09-18T00:19:24;5.40;;;4.50;;
17510;SDS011;8873;48.818;9.422;2023-09-18T00:21:51;5.70;;;4.22;;
17510;SDS011;8873;48.818;9.422;2023-09-18T00:24:20;4.68;;;4.25;;
17510;SDS011;8873;48.818;9.422;2023-09-18T00:26:49;5.90;;;4.30;;
17510;SDS011;8873;48.818;9.422;2023-09-18T00:29:19;4.25;;;3.95;;
17510;SDS011;8873;48.818;9.422;2023-09-18T00:31:46;4.50;;;4.10;;
17510;SDS011;8873;48.818;9.422;2023-09-18T00:34:14;4.35;;;3.95;;
17510;SDS011;8873;48.818;9.422;2023-09-18T00:36:42;5.85;;;4.13;;
17510;SDS011;8873;48.818;9.422;2023-09-18T00:39:09;4.90;;;4.50;;
17510;SDS011;8873;48.818;9.422;2023-09-18T00:41:37;4.90;;;4.07;;
17510;SDS011;8873;48.818;9.422;2023-09-18T00:44:06;5.45;;;3.85;;
17510;SDS011;8873;48.818;9.422;2023-09-18T00:46:33;4.93;;;4.10;;
17510;SDS011;8873;48.818;9.422;2023-09-18T00:49:02;6.35;;;4.18;;
17510;SDS011;8873;48.818;9.422;2023-09-18T00:51:30;7.18;;;4.15;;
17510;SDS011;8873;48.818;9.422;2023-09-18T00:53:58;6.20;;;4.35;;
17510;SDS011;8873;48.818;9.422;2023-09-18T00:56:26;5.07;;;4.25;;
17510;SDS011;8873;48.818;9.422;2023-09-18T00:58:54;5.15;;;4.35;;
17510;SDS011;8873;48.818;9.422;2023-09-18T01:01:23;7.35;;;4.00;;
17510;SDS011;8873;48.818;9.422;2023-09-18T01:03:50;5.32;;;4.13;;
17510;SDS011;8873;48.818;9.422;2023-09-18T01:06:20;5.03;;;4.53;;
17510;SDS011;8873;48.818;9.422;2023-09-18T01:08:47;5.78;;;4.88;;
17510;SDS011;8873;48.818;9.422;2023-09-18T01:11:22;4.82;;;4.18;;
17510;SDS011;8873;48.818;9.422;2023-09-18T01:13:54;5.88;;;3.85;;
17510;SDS011;8873;48.818;9.422;2023-09-18T01:16:35;4.97;;;4.30;;
17510;SDS011;8873;48.818;9.422;2023-09-18T01:19:04;6.63;;;4.95;;
17510;SDS011;8873;48.818;9.422;2023-09-18T01:21:33;4.38;;;4.07;;
17510;SDS011;8873;48.818;9.422;2023-09-18T01:24:03;5.65;;;4.43;;
17510;SDS011;8873;48.818;9.422;2023-09-18T01:26:30;4.90;;;4.25;;
17510;SDS011;8873;48.818;9.422;2023-09-18T01:28:58;5.35;;;4.15;;
17510;SDS011;8873;48.818;9.422;2023-09-18T01:31:26;4.43;;;4.00;;
17510;SDS011;8873;48.818;9.422;2023-09-18T01:33:53;5.28;;;4.60;;
17510;SDS011;8873;48.818;9.422;2023-09-18T01:36:21;6.95;;;4.25;;
17510;SDS011;8873;48.818;9.422;2023-09-18T01:38:49;4.82;;;4.32;;
17510;SDS011;8873;48.818;9.422;2023-09-18T01:41:19;4.22;;;3.92;;
17510;SDS011;8873;48.818;9.422;2023-09-18T01:43:47;8.23;;;4.35;;
17510;SDS011;8873;48.818;9.422;2023-09-18T01:46:14;7.88;;;4.95;;
17510;SDS011;8873;48.818;9.422;2023-09-18T01:48:45;4.53;;;4.13;;
17510;SDS011;8873;48.818;9.422;2023-09-18T01:51:13;5.32;;;4.75;;
17510;SDS011;8873;48.818;9.422;2023-09-18T01:53:40;7.22;;;4.53;;
17510;SDS011;8873;48.818;9.422;2023-09-18T01:56:09;4.70;;;4.20;;
17510;SDS011;8873;48.818;9.422;2023-09-18T01:58:38;4.50;;;4.10;;
17510;SDS011;8873;48.818;9.422;2023-09-18T02:01:06;4.45;;;4.05;;
17510;SDS011;8873;48.818;9.422;2023-09-18T02:03:34;5.55;;;4.78;;
17510;SDS011;8873;48.818;9.422;2023-09-18T02:06:22;5.03;;;4.53;;
17510;SDS011;8873;48.818;9.422;2023-09-18T02:08:49;7.40;;;3.90;;
17510;SDS011;8873;48.818;9.422;2023-09-18T02:11:18;6.50;;;4.95;;
17510;SDS011;8873;48.818;9.422;2023-09-18T02:13:47;5.55;;;4.03;;
17510;SDS011;8873;48.818;9.422;2023-09-18T02:16:14;6.63;;;4.30;;
17510;SDS011;8873;48.818;9.422;2023-09-18T02:18:42;5.93;;;3.97;;
17510;SDS011;8873;48.818;9.422;2023-09-18T02:21:09;7.57;;;4.13;;
17510;SDS011;8873;48.818;9.422;2023-09-18T02:23:37;4.78;;;4.30;;
17510;SDS011;8873;48.818;9.422;2023-09-18T02:26:04;9.18;;;4.20;;
17510;SDS011;8873;48.818;9.422;2023-09-18T02:28:31;10.20;;;4.82;;
17510;SDS011;8873;48.818;9.422;2023-09-18T02:31:00;11.52;;;5.00;;
17510;SDS011;8873;48.818;9.422;2023-09-18T02:33:29;11.00;;;4.78;;
17510;SDS011;8873;48.818;9.422;2023-09-18T02:35:56;8.25;;;4.90;;
17510;SDS011;8873;48.818;9.422;2023-09-18T02:38:24;9.85;;;5.25;;
17510;SDS011;8873;48.818;9.422;2023-09-18T02:40:52;6.88;;;4.43;;
17510;SDS011;8873;48.818;9.422;2023-09-18T02:43:20;9.65;;;4.47;;
17510;SDS011;8873;48.818;9.422;2023-09-18T02:45:48;7.43;;;4.70;;
17510;SDS011;8873;48.818;9.422;2023-09-18T02:48:17;16.23;;;5.68;;
17510;SDS011;8873;48.818;9.422;2023-09-18T02:50:45;10.43;;;5.18;;
17510;SDS011;8873;48.818;9.422;2023-09-18T02:53:16;7.90;;;5.13;;
17510;SDS011;8873;48.818;9.422;2023-09-18T02:55:44;11.90;;;6.20;;
17510;SDS011;8873;48.818;9.422;2023-09-18T02:58:12;8.93;;;5.70;;
17510;SDS011;8873;48.818;9.422;2023-09-18T03:00:42;7.55;;;5.85;;
17510;SDS011;8873;48.818;9.422;2023-09-18T03:03:11;6.88;;;5.20;;
17510;SDS011;8873;48.818;9.422;2023-09-18T03:05:46;13.35;;;5.53;;
17510;SDS011;8873;48.818;9.422;2023-09-18T03:08:14;11.00;;;5.68;;
17510;SDS011;8873;48.818;9.422;2023-09-18T03:10:42;13.70;;;6.05;;
17510;SDS011;8873;48.818;9.422;2023-09-18T03:13:11;11.05;;;5.20;;
17510;SDS011;8873;48.818;9.422;2023-09-18T03:15:39;11.88;;;5.35;;
17510;SDS011;8873;48.818;9.422;2023-09-18T03:18:06;9.77;;;6.03;;
17510;SDS011;8873;48.818;9.422;2023-09-18T03:20:34;10.30;;;5.90;;
17510;SDS011;8873;48.818;9.422;2023-09-18T03:23:03;12.73;;;6.88;;
17510;SDS011;8873;48.818;9.422;2023-09-18T03:25:31;9.57;;;6.28;;
17510;SDS011;8873;48.818;9.422;2023-09-18T03:28:17;13.45;;;6.90;;
17510;SDS011;8873;48.818;9.422;2023-09-18T03:30:45;15.23;;;7.35;;
17510;SDS011;8873;48.818;9.422;2023-09-18T03:33:13;11.75;;;7.15;;
17510;SDS011;8873;48.818;9.422;2023-09-18T03:35:50;12.25;;;6.93;;
17510;SDS011;8873;48.818;9.422;2023-09-18T03:38:21;13.18;;;6.43;;
17510;SDS011;8873;48.818;9.422;2023-09-18T03:40:49;14.93;;;6.55;;
17510;SDS011;8873;48.818;9.422;2023-09-18T03:43:17;11.02;;;6.60;;
17510;SDS011;8873;48.818;9.422;2023-09-18T03:45:45;10.98;;;6.03;;
17510;SDS011;8873;48.818;9.422;2023-09-18T03:48:12;11.02;;;6.95;;
17510;SDS011;8873;48.818;9.422;2023-09-18T03:50:40;16.27;;;6.45;;
17510;SDS011;8873;48.818;9.422;2023-09-18T03:53:09;16.08;;;5.75;;
17510;SDS011;8873;48.818;9.422;2023-09-18T03:55:38;9.57;;;6.10;;
17510;SDS011;8873;48.818;9.422;2023-09-18T03:58:05;10.68;;;6.20;;
17510;SDS011;8873;48.818;9.422;2023-09-18T04:00:33;10.30;;;6.18;;
17510;SDS011;8873;48.818;9.422;2023-09-18T04:03:00;12.00;;;6.20;;
17510;SDS011;8873;48.818;9.422;2023-09-18T04:05:28;14.43;;;6.38;;
17510;SDS011;8873;48.818;9.422;2023-09-18T04:07:56;10.80;;;6.70;;
17510;SDS011;8873;48.818;9.422;2023-09-18T04:10:23;12.88;;;6.18;;
17510;SDS011;8873;48.818;9.422;2023-09-18T04:12:52;9.57;;;6.30;;
17510;SDS011;8873;48.818;9.422;2023-09-18T04:15:20;11.50;;;6.18;;
17510;SDS011;8873;48.818;9.422;2023-09-18T04:17:49;11.77;;;6.97;;
17510;SDS011;8873;48.818;9.422;2023-09-18T04:20:17;9.52;;;6.07;;
17510;SDS011;8873;48.818;9.422;2023-09-18T04:22:45;11.18;;;6.30;;
17510;SDS011;8873;48.818;9.422;2023-09-18T04:25:16;15.85;;;6.45;;
17510;SDS011;8873;48.818;9.422;2023-09-18T04:27:46;8.70;;;6.32;;
17510;SDS011;8873;48.818;9.422;2023-09-18T04:30:18;11.80;;;5.97;;
17510;SDS011;8873;48.818;9.422;2023-09-18T04:32:46;13.05;;;6.50;;
17510;SDS011;8873;48.818;9.422;2023-09-18T04:35:17;16.90;;;6.43;;
17510;SDS011;8873;48.818;9.422;2023-09-18T04:37:45;10.63;;;6.72;;
17510;SDS011;8873;48.818;9.422;2023-09-18T04:40:12;13.48;;;6.15;;
17510;SDS011;8873;48.818;9.422;2023-09-18T04:42:40;13.63;;;7.07;;
17510;SDS011;8873;48.818;9.422;2023-09-18T04:45:09;12.38;;;6.45;;
17510;SDS011;8873;48.818;9.422;2023-09-18T04:47:40;15.80;;;6.25;;
17510;SDS011;8873;48.818;9.422;2023-09-18T04:50:36;13.52;;;6.72;;
17510;SDS011;8873;48.818;9.422;2023-09-18T04:53:04;14.82;;;6.68;;
17510;SDS011;8873;48.818;9.422;2023-09-18T04:55:31;14.98;;;5.97;;
17510;SDS011;8873;48.818;9.422;2023-09-18T04:57:59;10.15;;;6.22;;
17510;SDS011;8873;48.818;9.422;2023-09-18T05:00:27;18.13;;;7.57;;
17510;SDS011;8873;48.818;9.422;2023-09-18T05:02:57;18.58;;;7.57;;
17510;SDS011;8873;48.818;9.422;2023-09-18T05:05:27;17.27;;;7.97;;
17510;SDS011;8873;48.818;9.422;2023-09-18T05:07:56;13.65;;;7.05;;
17510;SDS011;8873;48.818;9.422;2023-09-18T05:10:23;15.50;;;7.70;;
17510;SDS011;8873;48.818;9.422;2023-09-18T05:12:51;12.82;;;7.18;;
17510;SDS011;8873;48.818;9.422;2023-09-18T05:15:25;12.43;;;7.55;;
17510;SDS011;8873;48.818;9.422;2023-09-18T05:17:56;14.93;;;7.47;;
17510;SDS011;8873;48.818;9.422;2023-09-18T05:20:26;16.70;;;7.70;;
17510;SDS011;8873;48.818;9.422;2023-09-18T05:22:55;11.57;;;7.65;;
17510;SDS011;8873;48.818;9.422;2023-09-18T05:25:23;21.20;;;8.05;;
17510;SDS011;8873;48.818;9.422;2023-09-18T05:27:52;16.60;;;6.35;;
17510;SDS011;8873;48.818;9.422;2023-09-18T05:30:23;17.75;;;5.97;;
17510;SDS011;8873;48.818;9.422;2023-09-18T05:32:51;13.40;;;6.22;;
17510;SDS011;8873;48.818;9.422;2023-09-18T05:35:19;10.40;;;5.78;;
17510;SDS011;8873;48.818;9.422;2023-09-18T05:37:49;12.73;;;6.43;;
17510;SDS011;8873;48.818;9.422;2023-09-18T05:40:17;17.33;;;6.60;;
17510;SDS011;8873;48.818;9.422;2023-09-18T05:42:45;14.25;;;7.22;;
17510;SDS011;8873;48.818;9.422;2023-09-18T05:45:13;11.10;;;6.70;;
17510;SDS011;8873;48.818;9.422;2023-09-18T05:47:41;14.57;;;8.68;;
17510;SDS011;8873;48.818;9.422;2023-09-18T05:50:10;12.82;;;7.90;;
17510;SDS011;8873;48.818;9.422;2023-09-18T05:52:41;14.70;;;7.57;;
17510;SDS011;8873;48.818;9.422;2023-09-18T05:55:10;13.45;;;6.90;;
17510;SDS011;8873;48.818;9.422;2023-09-18T05:58:06;12.25;;;8.13;;
17510;SDS011;8873;48.818;9.422;2023-09-18T06:00:34;16.30;;;6.93;;
17510;SDS011;8873;48.818;9.422;2023-09-18T06:03:03;11.77;;;8.32;;
17510;SDS011;8873;48.818;9.422;2023-09-18T06:05:32;27.10;;;12.98;;
17510;SDS011;8873;48.818;9.422;2023-09-18T06:08:01;11.95;;;6.88;;
17510;SDS011;8873;48.818;9.422;2023-09-18T06:10:30;14.95;;;7.00;;
17510;SDS011;8873;48.818;9.422;2023-09-18T06:12:57;14.50;;;8.45;;
17510;SDS011;8873;48.818;9.422;2023-09-18T06:15:30;16.63;;;7.82;;
17510;SDS011;8873;48.818;9.422;2023-09-18T06:17:58;12.02;;;6.43;;
17510;SDS011;8873;48.818;9.422;2023-09-18T06:20:26;17.77;;;10.95;;
17510;SDS011;8873;48.818;9.422;2023-09-18T06:22:53;14.73;;;9.02;;
17510;SDS011;8873;48.818;9.422;2023-09-18T06:25:21;25.33;;;16.30;;
17510;SDS011;8873;48.818;9.422;2023-09-18T06:34:53;13.43;;;8.43;;
17510;SDS011;8873;48.818;9.422;2023-09-18T06:37:23;13.13;;;8.10;;
17510;SDS011;8873;48.818;9.422;2023-09-18T06:39:53;10.95;;;6.25;;
17510;SDS011;8873;48.818;9.422;2023-09-18T06:42:26;12.63;;;7.13;;
17510;SDS011;8873;48.818;9.422;2023-09-18T06:44:53;15.35;;;8.48;;
17510;SDS011;8873;48.818;9.422;2023-09-18T06:47:22;18.52;;;9.45;;
17510;SDS011;8873;48.818;9.422;2023-09-18T06:49:55;18.85;;;11.65;;
17510;SDS011;8873;48.818;9.422;2023-09-18T06:52:22;18.90;;;10.30;;
17510;SDS011;8873;48.818;9.422;2023-09-18T06:54:53;17.90;;;13.80;;
17510;SDS011;8873;48.818;9.422;2023-09-18T06:57:23;8.82;;;4.95;;
17510;SDS011;8873;48.818;9.422;2023-09-18T06:59:51;13.02;;;4.72;;
17510;SDS011;8873;48.818;9.422;2023-09-18T07:02:19;13.00;;;3.75;;
17510;SDS011;8873;48.818;9.422;2023-09-18T07:04:49;8.48;;;3.83;;
17510;SDS011;8873;48.818;9.422;2023-09-18T07:07:22;12.02;;;5.47;;
17510;SDS011;8873;48.818;9.422;2023-09-18T07:09:52;8.38;;;5.68;;
17510;SDS011;8873;48.818;9.422;2023-09-18T07:12:30;15.98;;;9.75;;
17510;SDS011;8873;48.818;9.422;2023-09-18T07:15:05;15.40;;;6.40;;
17510;SDS011;8873;48.818;9.422;2023-09-18T07:17:32;9.32;;;6.65;;
17510;SDS011;8873;48.818;9.422;2023-09-18T07:20:02;11.75;;;7.20;;
17510;SDS011;8873;48.818;9.422;2023-09-18T07:22:41;9.32;;;5.80;;
17510;SDS011;8873;48.818;9.422;2023-09-18T07:25:09;6.97;;;3.05;;
17510;SDS011;8873;48.818;9.422;2023-09-18T07:27:44;7.03;;;3.10;;
17510;SDS011;8873;48.818;9.422;2023-09-18T07:30:12;8.90;;;2.97;;
17510;SDS011;8873;48.818;9.422;2023-09-18T07:32:42;9.43;;;3.30;;
17510;SDS011;8873;48.818;9.422;2023-09-18T07:35:14;6.90;;;3.00;;
17510;SDS011;8873;48.818;9.422;2023-09-18T07:37:44;6.63;;;3.28;;
17510;SDS011;8873;48.818;9.422;2023-09-18T07:40:13;10.23;;;2.83;;
17510;SDS011;8873;48.818;9.422;2023-09-18T07:42:42;8.80;;;3.10;;
17510;SDS011;8873;48.818;9.422;2023-09-18T07:45:10;8.70;;;3.08;;
17510;SDS011;8873;48.818;9.422;2023-09-18T07:47:43;7.35;;;3.10;;
17510;SDS011;8873;48.818;9.422;2023-09-18T07:50:12;9.57;;;2.88;;
17510;SDS011;8873;48.818;9.422;2023-09-18T07:52:41;8.32;;;3.13;;
17510;SDS011;8873;48.818;9.422;2023-09-18T07:55:12;11.50;;;2.92;;
17510;SDS011;8873;48.818;9.422;2023-09-18T07:57:40;8.82;;;2.50;;
17510;SDS011;8873;48.818;9.422;2023-09-18T08:00:08;13.25;;;2.60;;
17510;SDS011;8873;48.818;9.422;2023-09-18T08:02:39;8.05;;;2.97;;
17510;SDS011;8873;48.818;9.422;2023-09-18T08:05:10;16.15;;;3.20;;
17510;SDS011;8873;48.818;9.422;2023-09-18T08:07:37;9.73;;;3.00;;
17510;SDS011;8873;48.818;9.422;2023-09-18T08:10:07;8.38;;;2.95;;
17510;SDS011;8873;48.818;9.422;2023-09-18T08:12:36;6.75;;;2.85;;
17510;SDS011;8873;48.818;9.422;2023-09-18T08:15:05;7.60;;;2.83;;
17510;SDS011;8873;48.818;9.422;2023-09-18T08:17:33;5.43;;;2.33;;
17510;SDS011;8873;48.818;9.422;2023-09-18T08:20:01;9.85;;;2.63;;
17510;SDS011;8873;48.818;9.422;2023-09-18T08:22:33;4.95;;;2.22;;
17510;SDS011;8873;48.818;9.422;2023-09-18T08:25:01;7.03;;;2.00;;
17510;SDS011;8873;48.818;9.422;2023-09-18T08:27:30;6.32;;;2.20;;
17510;SDS011;8873;48.818;9.422;2023-09-18T08:30:00;4.85;;;2.17;;
17510;SDS011;8873;48.818;9.422;2023-09-18T08:32:28;4.78;;;2.10;;
17510;SDS011;8873;48.818;9.422;2023-09-18T08:35:00;5.50;;;2.15;;
17510;SDS011;8873;48.818;9.422;2023-09-18T08:37:28;4.75;;;2.00;;
17510;SDS011;8873;48.818;9.422;2023-09-18T08:39:56;3.33;;;1.88;;
17510;SDS011;8873;48.818;9.422;2023-09-18T08:42:24;3.53;;;1.80;;
17510;SDS011;8873;48.818;9.422;2023-09-18T08:44:52;2.78;;;1.50;;
17510;SDS011;8873;48.818;9.422;2023-09-18T08:47:22;4.75;;;1.90;;
17510;SDS011;8873;48.818;9.422;2023-09-18T08:49:50;7.47;;;1.90;;
17510;SDS011;8873;48.818;9.422;2023-09-18T08:52:19;5.60;;;2.30;;
17510;SDS011;8873;48.818;9.422;2023-09-18T08:54:47;2.20;;;1.95;;
17510;SDS011;8873;48.818;9.422;2023-09-18T08:57:15;3.28;;;1.90;;
17510;SDS011;8873;48.818;9.422;2023-09-18T08:59:43;8.02;;;2.15;;
17510;SDS011;8873;48.818;9.422;2023-09-18T09:02:11;6.35;;;2.00;;
17510;SDS011;8873;48.818;9.422;2023-09-18T09:04:40;2.33;;;1.88;;
17510;SDS011;8873;48.818;9.422;2023-09-18T09:07:08;5.93;;;2.03;;
17510;SDS011;8873;48.818;9.422;2023-09-18T09:09:36;7.85;;;1.85;;
17510;SDS011;8873;48.818;9.422;2023-09-18T09:12:06;3.15;;;1.98;;
17510;SDS011;8873;48.818;9.422;2023-09-18T09:14:34;4.72;;;2.00;;
17510;SDS011;8873;48.818;9.422;2023-09-18T09:17:02;2.40;;;2.20;;
17510;SDS011;8873;48.818;9.422;2023-09-18T09:19:30;4.97;;;2.00;;
17510;SDS011;8873;48.818;9.422;2023-09-18T09:22:00;4.13;;;2.75;;
17510;SDS011;8873;48.818;9.422;2023-09-18T09:24:38;2.58;;;2.10;;
17510;SDS011;8873;48.818;9.422;2023-09-18T09:27:06;3.80;;;2.40;;
17510;SDS011;8873;48.818;9.422;2023-09-18T09:29:34;7.18;;;2.33;;
17510;SDS011;8873;48.818;9.422;2023-09-18T09:32:11;4.88;;;2.47;;
17510;SDS011;8873;48.818;9.422;2023-09-18T09:34:40;6.68;;;2.40;;
17510;SDS011;8873;48.818;9.422;2023-09-18T09:37:09;5.53;;;2.50;;
17510;SDS011;8873;48.818;9.422;2023-09-18T09:39:47;7.07;;;2.70;;
17510;SDS011;8873;48.818;9.422;2023-09-18T09:42:18;2.70;;;2.10;;
17510;SDS011;8873;48.818;9.422;2023-09-18T09:44:55;1.80;;;1.70;;
17510;SDS011;8873;48.818;9.422;2023-09-18T09:47:23;5.60;;;2.45;;
17510;SDS011;8873;48.818;9.422;2023-09-18T09:49:54;5.40;;;2.30;;
17510;SDS011;8873;48.818;9.422;2023-09-18T09:52:23;2.45;;;1.95;;
17510;SDS011;8873;48.818;9.422;2023-09-18T09:54:50;4.90;;;2.33;;
17510;SDS011;8873;48.818;9.422;2023-09-18T09:57:18;1.98;;;1.85;;
17510;SDS011;8873;48.818;9.422;2023-09-18T09:59:45;6.63;;;2.33;;
17510;SDS011;8873;48.818;9.422;2023-09-18T10:02:13;4.40;;;2.00;;
17510;SDS011;8873;48.818;9.422;2023-09-18T10:04:46;3.22;;;2.15;;
17510;SDS011;8873;48.818;9.422;2023-09-18T10:07:14;1.83;;;1.73;;
17510;SDS011;8873;48.818;9.422;2023-09-18T10:09:44;5.50;;;2.10;;
17510;SDS011;8873;48.818;9.422;2023-09-18T10:12:15;3.53;;;2.00;;
17510;SDS011;8873;48.818;9.422;2023-09-18T10:14:47;5.35;;;1.92;;
17510;SDS011;8873;48.818;9.422;2023-09-18T10:17:27;4.82;;;2.10;;
17510;SDS011;8873;48.818;9.422;2023-09-18T10:19:59;3.55;;;2.58;;
17510;SDS011;8873;48.818;9.422;2023-09-18T10:22:36;2.45;;;2.25;;
17510;SDS011;8873;48.818;9.422;2023-09-18T10:25:07;5.13;;;2.00;;
17510;SDS011;8873;48.818;9.422;2023-09-18T10:27:37;2.35;;;2.15;;
17510;SDS011;8873;48.818;9.422;2023-09-18T10:30:07;13.48;;;2.30;;
17510;SDS011;8873;48.818;9.422;2023-09-18T10:32:37;7.45;;;2.10;;
17510;SDS011;8873;48.818;9.422;2023-09-18T10:35:06;4.97;;;2.28;;
17510;SDS011;8873;48.818;9.422;2023-09-18T10:37:35;2.47;;;2.15;;
17510;SDS011;8873;48.818;9.422;2023-09-18T10:40:08;2.60;;;2.08;;
17510;SDS011;8873;48.818;9.422;2023-09-18T10:42:37;3.45;;;2.10;;
17510;SDS011;8873;48.818;9.422;2023-09-18T10:45:06;4.30;;;2.17;;
17510;SDS011;8873;48.818;9.422;2023-09-18T10:47:37;3.95;;;2.28;;
17510;SDS011;8873;48.818;9.422;2023-09-18T10:50:06;6.13;;;2.10;;
17510;SDS011;8873;48.818;9.422;2023-09-18T10:52:34;6.55;;;2.13;;
17510;SDS011;8873;48.818;9.422;2023-09-18T10:55:02;3.08;;;2.10;;
17510;SDS011;8873;48.818;9.422;2023-09-18T10:57:34;5.60;;;2.40;;
17510;SDS011;8873;48.818;9.422;2023-09-18T11:00:02;4.30;;;2.10;;
17510;SDS011;8873;48.818;9.422;2023-09-18T11:02:39;4.35;;;2.08;;
17510;SDS011;8873;48.818;9.422;2023-09-18T11:05:07;8.70;;;2.03;;
17510;SDS011;8873;48.818;9.422;2023-09-18T11:07:35;3.97;;;2.28;;
17510;SDS011;8873;48.818;9.422;2023-09-18T11:12:46;2.78;;;1.95;;
17510;SDS011;8873;48.818;9.422;2023-09-18T11:15:25;3.97;;;2.10;;
17510;SDS011;8873;48.818;9.422;2023-09-18T11:17:58;6.30;;;2.00;;
17510;SDS011;8873;48.818;9.422;2023-09-18T11:20:26;3.63;;;1.77;;
17510;SDS011;8873;48.818;9.422;2023-09-18T11:22:55;4.78;;;2.50;;
17510;SDS011;8873;48.818;9.422;2023-09-18T11:25:36;3.78;;;2.30;;
17510;SDS011;8873;48.818;9.422;2023-09-18T11:28:06;7.22;;;2.15;;
17510;SDS011;8873;48.818;9.422;2023-09-18T11:30:36;5.97;;;2.50;;
17510;SDS011;8873;48.818;9.422;2023-09-18T11:33:05;4.72;;;2.33;;
17510;SDS011;8873;48.818;9.422;2023-09-18T11:35:32;4.68;;;2.80;;
17510;SDS011;8873;48.818;9.422;2023-09-18T11:38:04;3.80;;;2.50;;
17510;SDS011;8873;48.818;9.422;2023-09-18T11:40:35;6.43;;;1.85;;
17510;SDS011;8873;48.818;9.422;2023-09-18T11:43:25;3.67;;;2.25;;
17510;SDS011;8873;48.818;9.422;2023-09-18T11:45:56;4.20;;;2.30;;
17510;SDS011;8873;48.818;9.422;2023-09-18T11:48:24;3.10;;;2.13;;
17510;SDS011;8873;48.818;9.422;2023-09-18T11:50:55;5.53;;;2.10;;
17510;SDS011;8873;48.818;9.422;2023-09-18T11:53:23;5.78;;;2.17;;
17510;SDS011;8873;48.818;9.422;2023-09-18T11:55:51;5.97;;;2.30;;
17510;SDS011;8873;48.818;9.422;2023-09-18T11:58:19;2.88;;;1.90;;
17510;SDS011;8873;48.818;9.422;2023-09-18T12:00:51;5.15;;;1.85;;
17510;SDS011;8873;48.818;9.422;2023-09-18T12:03:21;2.00;;;1.90;;
17510;SDS011;8873;48.818;9.422;2023-09-18T12:05:55;2.75;;;1.63;;
17510;SDS011;8873;48.818;9.422;2023-09-18T12:08:23;2.25;;;1.88;;
17510;SDS011;8873;48.818;9.422;2023-09-18T12:10:53;3.00;;;1.83;;
17510;SDS011;8873;48.818;9.422;2023-09-18T12:13:21;2.03;;;1.92;;
17510;SDS011;8873;48.818;9.422;2023-09-18T12:15:52;3.85;;;1.75;;
17510;SDS011;8873;48.818;9.422;2023-09-18T12:18:23;3.45;;;2.00;;
17510;SDS011;8873;48.818;9.422;2023-09-18T12:20:53;5.25;;;2.00;;
17510;SDS011;8873;48.818;9.422;2023-09-18T12:23:22;5.45;;;1.90;;
17510;SDS011;8873;48.818;9.422;2023-09-18T12:25:55;5.15;;;1.73;;
17510;SDS011;8873;48.818;9.422;2023-09-18T12:28:24;5.35;;;2.08;;
17510;SDS011;8873;48.818;9.422;2023-09-18T12:30:55;4.07;;;2.10;;
17510;SDS011;8873;48.818;9.422;2023-09-18T12:33:23;3.30;;;1.90;;
17510;SDS011;8873;48.818;9.422;2023-09-18T12:35:51;3.63;;;1.90;;
17510;SDS011;8873;48.818;9.422;2023-09-18T12:38:19;1.98;;;1.88;;
17510;SDS011;8873;48.818;9.422;2023-09-18T12:40:51;2.17;;;1.98;;
17510;SDS011;8873;48.818;9.422;2023-09-18T12:43:19;3.30;;;2.00;;
17510;SDS011;8873;48.818;9.422;2023-09-18T12:45:48;3.72;;;1.60;;
17510;SDS011;8873;48.818;9.422;2023-09-18T12:48:18;1.90;;;1.80;;
17510;SDS011;8873;48.818;9.422;2023-09-18T12:50:46;2.65;;;1.90;;
17510;SDS011;8873;48.818;9.422;2023-09-18T12:53:21;1.67;;;1.58;;
17510;SDS011;8873;48.818;9.422;2023-09-18T12:55:49;3.25;;;2.25;;
17510;SDS011;8873;48.818;9.422;2023-09-18T12:58:18;2.47;;;2.20;;
17510;SDS011;8873;48.818;9.422;2023-09-18T13:00:46;6.03;;;2.40;;
17510;SDS011;8873;48.818;9.422;2023-09-18T13:03:16;4.38;;;1.77;;
17510;SDS011;8873;48.818;9.422;2023-09-18T13:05:46;4.60;;;1.90;;
17510;SDS011;8873;48.818;9.422;2023-09-18T13:08:15;2.42;;;1.42;;
17510;SDS011;8873;48.818;9.422;2023-09-18T13:10:48;2.65;;;1.60;;
17510;SDS011;8873;48.818;9.422;2023-09-18T13:13:17;2.58;;;1.70;;
17510;SDS011;8873;48.818;9.422;2023-09-18T13:15:45;1.85;;;1.70;;
17510;SDS011;8873;48.818;9.422;2023-09-18T13:18:14;3.22;;;1.88;;
17510;SDS011;8873;48.818;9.422;2023-09-18T13:20:43;3.85;;;1.52;;
17510;SDS011;8873;48.818;9.422;2023-09-18T13:23:11;2.47;;;1.90;;
17510;SDS011;8873;48.818;9.422;2023-09-18T13:25:39;1.85;;;1.70;;
17510;SDS011;8873;48.818;9.422;2023-09-18T13:28:10;2.85;;;1.67;;
17510;SDS011;8873;48.818;9.422;2023-09-18T13:30:39;8.38;;;1.80;;
17510;SDS011;8873;48.818;9.422;2023-09-18T13:33:07;2.55;;;1.60;;
17510;SDS011;8873;48.818;9.422;2023-09-18T13:35:36;1.42;;;1.40;;
17510;SDS011;8873;48.818;9.422;2023-09-18T13:38:04;1.92;;;1.73;;
17510;SDS011;8873;48.818;9.422;2023-09-18T13:40:35;3.03;;;1.63;;
17510;SDS011;8873;48.818;9.422;2023-09-18T13:43:03;4.47;;;1.65;;
17510;SDS011;8873;48.818;9.422;2023-09-18T13:45:31;1.98;;;1.42;;
17510;SDS011;8873;48.818;9.422;2023-09-18T13:48:01;1.90;;;1.60;;
17510;SDS011;8873;48.818;9.422;2023-09-18T13:50:29;4.13;;;1.73;;
17510;SDS011;8873;48.818;9.422;2023-09-18T13:52:56;2.50;;;1.65;;
17510;SDS011;8873;48.818;9.422;2023-09-18T13:55:29;4.25;;;1.98;;
17510;SDS011;8873;48.818;9.422;2023-09-18T13:57:58;3.55;;;1.75;;
17510;SDS011;8873;48.818;9.422;2023-09-18T14:00:26;1.58;;;1.48;;
17510;SDS011;8873;48.818;9.422;2023-09-18T14:02:53;3.17;;;1.60;;
17510;SDS011;8873;48.818;9.422;2023-09-18T14:05:21;3.28;;;1.67;;
17510;SDS011;8873;48.818;9.422;2023-09-18T14:07:49;3.47;;;2.17;;
17510;SDS011;8873;48.818;9.422;2023-09-18T14:10:23;2.03;;;1.88;;
17510;SDS011;8873;48.818;9.422;2023-09-18T14:12:51;3.42;;;1.88;;
17510;SDS011;8873;48.818;9.422;2023-09-18T14:15:20;3.42;;;2.08;;
17510;SDS011;8873;48.818;9.422;2023-09-18T14:17:48;1.83;;;1.70;;
17510;SDS011;8873;48.818;9.422;2023-09-18T14:20:16;2.88;;;2.13;;
17510;SDS011;8873;48.818;9.422;2023-09-18T14:22:46;3.17;;;1.40;;
17510;SDS011;8873;48.818;9.422;2023-09-18T14:25:16;2.90;;;1.98;;
17510;SDS011;8873;48.818;9.422;2023-09-18T14:27:46;2.80;;;2.00;;
17510;SDS011;8873;48.818;9.422;2023-09-18T14:30:14;1.95;;;1.77;;
17510;SDS011;8873;48.818;9.422;2023-09-18T14:32:43;3.45;;;1.90;;
17510;SDS011;8873;48.818;9.422;2023-09-18T14:35:11;2.55;;;1.70;;
17510;SDS011;8873;48.818;9.422;2023-09-18T14:37:40;6.10;;;2.83;;
17510;SDS011;8873;48.818;9.422;2023-09-18T14:40:08;7.72;;;2.22;;
17510;SDS011;8873;48.818;9.422;2023-09-18T14:42:38;1.92;;;1.70;;
17510;SDS011;8873;48.818;9.422;2023-09-18T14:45:06;5.00;;;2.00;;
17510;SDS011;8873;48.818;9.422;2023-09-18T14:47:34;3.20;;;1.52;;
17510;SDS011;8873;48.818;9.422;2023-09-18T14:50:03;2.72;;;1.90;;
17510;SDS011;8873;48.818;9.422;2023-09-18T14:52:31;2.10;;;1.90;;
17510;SDS011;8873;48.818;9.422;2023-09-18T14:54:59;1.98;;;1.60;;
17510;SDS011;8873;48.818;9.422;2023-09-18T14:57:28;4.18;;;1.77;;
17510;SDS011;8873;48.818;9.422;2023-09-18T14:59:55;2.03;;;1.90;;
17510;SDS011;8873;48.818;9.422;2023-09-18T15:02:23;2.50;;;1.63;;
17510;SDS011;8873;48.818;9.422;2023-09-18T15:04:56;2.90;;;1.80;;
17510;SDS011;8873;48.818;9.422;2023-09-18T15:07:26;1.80;;;1.70;;
17510;SDS011;8873;48.818;9.422;2023-09-18T15:09:59;2.40;;;1.60;;
17510;SDS011;8873;48.818;9.422;2023-09-18T15:12:26;1.58;;;1.48;;
17510;SDS011;8873;48.818;9.422;2023-09-18T15:14:55;2.35;;;1.80;;
17510;SDS011;8873;48.818;9.422;2023-09-18T15:17:23;4.68;;;1.98;;
17510;SDS011;8873;48.818;9.422;2023-09-18T15:19:52;3.42;;;2.00;;
17510;SDS011;8873;48.818;9.422;2023-09-18T15:22:21;2.92;;;1.58;;